Mudcat — WCY8255 — position and weather

sailwx.info

Track history (hours):
 
Tides and Currents Weather Stations Pressure Air Temp Water Temp Dewpoint Dewpoint Depression Visibility Wind Speed Wind Dir Waves Ship Positions

Mudcat

Owner: TAURUS MARINE, SAN FRANCISCO, CA. More information available from US FCC via Universal Licensing System and Coast Guard Vessel Documentation Center.

Last reported at 2016-Aug-31 02:33 UTC. Time now 2016-Sep-01 01:57 UTC.
Position N 47°35' W 122°22'.

Length 22 m; draft 2 m.

Type: Tug. MMSI: 366969750.

Date/timePositionNaut miles runAvg speedWind from/ knotsBaromVisibWave heightAir tempDewpointWater temp
2016-Aug-31 02:33N 47°35' W 122°22'6 5.8
2016-Aug-31 01:34N 47°41' W 122°25'1 1.0
2016-Aug-31 00:33N 47°40' W 122°24'0 0.0
2016-Aug-30 23:33N 47°40' W 122°24'1 1.1
2016-Aug-30 22:33N 47°39' W 122°22'2 2.4
2016-Aug-30 21:33N 47°39' W 122°19'1 0.6
2016-Aug-30 20:31N 47°39' W 122°18'4 4.1
2016-Aug-30 19:33N 47°40' W 122°23'3 3.2
2016-Aug-30 18:33N 47°37' W 122°23'3 0.2
2016-Aug-30 02:34N 47°34' W 122°21'7 7.4
2016-Aug-30 01:33N 47°40' W 122°27'7 7.5
2016-Aug-30 00:34N 47°48' W 122°28'8 7.7
2016-Aug-29 23:33N 47°55' W 122°31'3 1.0
2016-Aug-29 20:16N 47°57' W 122°36'4 5.8
2016-Aug-29 19:33N 47°54' W 122°31'7 6.6
2016-Aug-29 18:34N 47°49' W 122°26'7 7.2
2016-Aug-29 17:34N 47°41' W 122°26'7 6.6
2016-Aug-29 16:34N 47°35' W 122°22'2 0.5
2016-Aug-29 13:33N 47°34' W 122°21'1 0.0
2016-Aug-28 02:33N 47°34' W 122°21'6 6.1
2016-Aug-28 01:33N 47°40' W 122°24'4 3.6
2016-Aug-28 00:23N 47°39' W 122°19'2 1.0
2016-Aug-27 22:32N 47°38' W 122°16'0 0.1
2016-Aug-27 18:32N 47°39' W 122°16'0 0.2
2016-Aug-27 17:09N 47°39' W 122°17'0 0.0
2016-Aug-27 16:31N 47°39' W 122°17'0 0.2
2016-Aug-27 15:27N 47°39' W 122°16'1 0.8
2016-Aug-27 14:09N 47°38' W 122°15'1 0.7
2016-Aug-27 12:25N 47°39' W 122°17'3 3.0
2016-Aug-27 11:33N 47°39' W 122°20'  
2016-Aug-25 02:26N 47°39' W 122°20'3 3.6
2016-Aug-25 01:33N 47°40' W 122°24'1 0.7
2016-Aug-25 00:33N 47°40' W 122°24'0 0.0
2016-Aug-24 23:33N 47°40' W 122°24'1 1.4
2016-Aug-24 22:33N 47°39' W 122°22'4 1.8
2016-Aug-24 20:33N 47°39' W 122°16'3 2.8
2016-Aug-24 19:33N 47°39' W 122°20'0 0.0
2016-Aug-24 14:33N 47°39' W 122°20'0 0.0
2016-Aug-24 13:33N 47°39' W 122°20'0 0.0
2016-Aug-24 12:33N 47°39' W 122°20'0 0.0
2016-Aug-24 11:33N 47°39' W 122°20'0 0.0
2016-Aug-24 10:33N 47°39' W 122°20'0 0.0
2016-Aug-24 09:33N 47°39' W 122°20'0 0.0
2016-Aug-24 08:33N 47°39' W 122°20'0 0.0
2016-Aug-24 07:33N 47°39' W 122°20'0 0.0
2016-Aug-24 06:33N 47°39' W 122°20'0 0.0
2016-Aug-24 04:33N 47°39' W 122°20'0 0.0
2016-Aug-24 03:33N 47°39' W 122°20'0 0.0
2016-Aug-24 02:33N 47°39' W 122°20'0 0.0
2016-Aug-24 01:33N 47°39' W 122°20'0 0.0
2016-Aug-24 00:33N 47°39' W 122°20'0 0.0
2016-Aug-23 23:33N 47°39' W 122°20'0 0.0
2016-Aug-23 22:33N 47°39' W 122°20'0 0.0
2016-Aug-23 21:33N 47°39' W 122°20'0 0.0
2016-Aug-23 20:33N 47°39' W 122°20'0 0.0
2016-Aug-23 19:33N 47°39' W 122°20'0 0.0
2016-Aug-23 18:33N 47°39' W 122°20'0 0.0
2016-Aug-23 17:33N 47°39' W 122°20'0 0.0
2016-Aug-23 16:33N 47°39' W 122°20'0 0.0
2016-Aug-23 15:33N 47°39' W 122°20'0 0.0
2016-Aug-23 14:33N 47°39' W 122°20'0 0.0
2016-Aug-23 13:33N 47°39' W 122°20'0 0.0
2016-Aug-23 12:33N 47°39' W 122°20'0 0.0
2016-Aug-23 11:33N 47°39' W 122°20'0 0.0
2016-Aug-23 10:33N 47°39' W 122°20'0 0.0
2016-Aug-23 09:33N 47°39' W 122°20'0 0.0
2016-Aug-23 08:33N 47°39' W 122°20'0 0.0
2016-Aug-23 07:33N 47°39' W 122°20'0 0.0
2016-Aug-23 06:33N 47°39' W 122°20'0 0.0
2016-Aug-23 05:33N 47°39' W 122°20'0 0.0
2016-Aug-23 04:33N 47°39' W 122°20'0 0.0
2016-Aug-23 03:33N 47°39' W 122°20'0 0.0
2016-Aug-23 02:33N 47°39' W 122°20'0 0.0
2016-Aug-23 01:33N 47°39' W 122°20'0 0.0
2016-Aug-23 00:33N 47°39' W 122°20'0 0.0
2016-Aug-22 23:33N 47°39' W 122°20'0 0.0
2016-Aug-22 22:33N 47°39' W 122°20'0 0.0
2016-Aug-22 17:25N 47°39' W 122°20'4 4.2
2016-Aug-22 16:31N 47°38' W 122°15'0 0.4
2016-Aug-22 15:33N 47°38' W 122°15'3 3.4
2016-Aug-22 14:33N 47°39' W 122°20'3 3.1
2016-Aug-22 13:34N 47°40' W 122°24'6 5.8
2016-Aug-22 12:33N 47°35' W 122°22'  
Track history (hours):
 
Tides and Currents Weather Stations Pressure Air Temp Water Temp Dewpoint Dewpoint Depression Visibility Wind Speed Wind Dir Waves Ship Positions

Mudcat

Owner: TAURUS MARINE, SAN FRANCISCO, CA. More information available from US FCC via Universal Licensing System and Coast Guard Vessel Documentation Center.

Last reported at 2016-Aug-31 02:33 UTC. Time now 2016-Sep-01 01:57 UTC.
Position N 47°35' W 122°22'.

Length 22 m; draft 2 m.

Type: Tug. MMSI: 366969750.

Date/timePositionNaut miles runAvg speedWind from/ knotsBaromVisibWave heightAir tempDewpointWater temp
2016-Aug-31 02:33N 47°35' W 122°22'6 5.8
2016-Aug-31 01:34N 47°41' W 122°25'1 1.0
2016-Aug-31 00:33N 47°40' W 122°24'0 0.0
2016-Aug-30 23:33N 47°40' W 122°24'1 1.1
2016-Aug-30 22:33N 47°39' W 122°22'2 2.4
2016-Aug-30 21:33N 47°39' W 122°19'1 0.6
2016-Aug-30 20:31N 47°39' W 122°18'4 4.1
2016-Aug-30 19:33N 47°40' W 122°23'3 3.2
2016-Aug-30 18:33N 47°37' W 122°23'3 0.2
2016-Aug-30 02:34N 47°34' W 122°21'7 7.4
2016-Aug-30 01:33N 47°40' W 122°27'7 7.5
2016-Aug-30 00:34N 47°48' W 122°28'8 7.7
2016-Aug-29 23:33N 47°55' W 122°31'3 1.0
2016-Aug-29 20:16N 47°57' W 122°36'4 5.8
2016-Aug-29 19:33N 47°54' W 122°31'7 6.6
2016-Aug-29 18:34N 47°49' W 122°26'7 7.2
2016-Aug-29 17:34N 47°41' W 122°26'7 6.6
2016-Aug-29 16:34N 47°35' W 122°22'2 0.5
2016-Aug-29 13:33N 47°34' W 122°21'1 0.0
2016-Aug-28 02:33N 47°34' W 122°21'6 6.1
2016-Aug-28 01:33N 47°40' W 122°24'4 3.6
2016-Aug-28 00:23N 47°39' W 122°19'2 1.0
2016-Aug-27 22:32N 47°38' W 122°16'0 0.1
2016-Aug-27 18:32N 47°39' W 122°16'0 0.2
2016-Aug-27 17:09N 47°39' W 122°17'0 0.0
2016-Aug-27 16:31N 47°39' W 122°17'0 0.2
2016-Aug-27 15:27N 47°39' W 122°16'1 0.8
2016-Aug-27 14:09N 47°38' W 122°15'1 0.7
2016-Aug-27 12:25N 47°39' W 122°17'3 3.0
2016-Aug-27 11:33N 47°39' W 122°20'  
2016-Aug-25 02:26N 47°39' W 122°20'3 3.6
2016-Aug-25 01:33N 47°40' W 122°24'1 0.7
2016-Aug-25 00:33N 47°40' W 122°24'0 0.0
2016-Aug-24 23:33N 47°40' W 122°24'1 1.4
2016-Aug-24 22:33N 47°39' W 122°22'4 1.8
2016-Aug-24 20:33N 47°39' W 122°16'3 2.8
2016-Aug-24 19:33N 47°39' W 122°20'0 0.0
2016-Aug-24 14:33N 47°39' W 122°20'0 0.0
2016-Aug-24 13:33N 47°39' W 122°20'0 0.0
2016-Aug-24 12:33N 47°39' W 122°20'0 0.0
2016-Aug-24 11:33N 47°39' W 122°20'0 0.0
2016-Aug-24 10:33N 47°39' W 122°20'0 0.0
2016-Aug-24 09:33N 47°39' W 122°20'0 0.0
2016-Aug-24 08:33N 47°39' W 122°20'0 0.0
2016-Aug-24 07:33N 47°39' W 122°20'0 0.0
2016-Aug-24 06:33N 47°39' W 122°20'0 0.0
2016-Aug-24 04:33N 47°39' W 122°20'0 0.0
2016-Aug-24 03:33N 47°39' W 122°20'0 0.0
2016-Aug-24 02:33N 47°39' W 122°20'0 0.0
2016-Aug-24 01:33N 47°39' W 122°20'0 0.0
2016-Aug-24 00:33N 47°39' W 122°20'0 0.0
2016-Aug-23 23:33N 47°39' W 122°20'0 0.0
2016-Aug-23 22:33N 47°39' W 122°20'0 0.0
2016-Aug-23 21:33N 47°39' W 122°20'0 0.0
2016-Aug-23 20:33N 47°39' W 122°20'0 0.0
2016-Aug-23 19:33N 47°39' W 122°20'0 0.0
2016-Aug-23 18:33N 47°39' W 122°20'0 0.0
2016-Aug-23 17:33N 47°39' W 122°20'0 0.0
2016-Aug-23 16:33N 47°39' W 122°20'0 0.0
2016-Aug-23 15:33N 47°39' W 122°20'0 0.0
2016-Aug-23 14:33N 47°39' W 122°20'0 0.0
2016-Aug-23 13:33N 47°39' W 122°20'0 0.0
2016-Aug-23 12:33N 47°39' W 122°20'0 0.0
2016-Aug-23 11:33N 47°39' W 122°20'0 0.0
2016-Aug-23 10:33N 47°39' W 122°20'0 0.0
2016-Aug-23 09:33N 47°39' W 122°20'0 0.0
2016-Aug-23 08:33N 47°39' W 122°20'0 0.0
2016-Aug-23 07:33N 47°39' W 122°20'0 0.0
2016-Aug-23 06:33N 47°39' W 122°20'0 0.0
2016-Aug-23 05:33N 47°39' W 122°20'0 0.0
2016-Aug-23 04:33N 47°39' W 122°20'0 0.0
2016-Aug-23 03:33N 47°39' W 122°20'0 0.0
2016-Aug-23 02:33N 47°39' W 122°20'0 0.0
2016-Aug-23 01:33N 47°39' W 122°20'0 0.0
2016-Aug-23 00:33N 47°39' W 122°20'0 0.0
2016-Aug-22 23:33N 47°39' W 122°20'0 0.0
2016-Aug-22 22:33N 47°39' W 122°20'0 0.0
2016-Aug-22 17:25N 47°39' W 122°20'4 4.2
2016-Aug-22 16:31N 47°38' W 122°15'0 0.4
2016-Aug-22 15:33N 47°38' W 122°15'3 3.4
2016-Aug-22 14:33N 47°39' W 122°20'3 3.1
2016-Aug-22 13:34N 47°40' W 122°24'6 5.8
2016-Aug-22 12:33N 47°35' W 122°22'  

Dump ship's entire track history